^^
Datos históricos de la estación: Murcia-Puente Tocinos
Diario Informe para Mayo 16, 2021 Unidades:  Ingés    Métrico   Ambas
Diario Semanal Mensual Anual
  Máxima: Mínima: Promedio:
Temperatura: 93.7 °F 68.5 °F 80.2 °F
Punto de rocio: 53.2 °F 44.8 °F 48.7 °F
Humedad: 55.7% 20% 36%
Velocidad viento: 12.5mph 1.4mph 5.6mph
Racha viento: 22.3mph - -
Viento- - Sur
Presión: 29.9 in 29.8 in -
Precipitación: 0 in    
 
 
Tabla de datos para Mayo 16, 2021
Hora Temperatura Punto de rocio Presión Viento Velocidad viento Racha viento Humedad Intensidad lluvia(por hora) Nubes
00:04 73.6 °F 53.2 °F 29.9 in OSO 2 mph 4.6 mph 49% 0 in
00:09 73.6 °F 53.2 °F 29.9 in Oeste 1.9 mph 5 mph 49% 0 in
00:14 73.6 °F 53.2 °F 29.9 in ONO 1.8 mph 3.6 mph 49% 0 in
00:19 73.4 °F 53.1 °F 29.9 in Oeste 1.8 mph 4.3 mph 49% 0 in
00:24 73.2 °F 52.9 °F 29.9 in OSO 1.8 mph 5.9 mph 49% 0 in
00:29 73 °F 52.7 °F 29.9 in SSO 2.4 mph 6 mph 49% 0 in
00:34 73 °F 53.1 °F 29.9 in Sur 2.9 mph 7.6 mph 49.6% 0 in
00:39 72.9 °F 53.1 °F 29.9 in Sur 3.6 mph 8.1 mph 50% 0 in
00:44 72.9 °F 53.1 °F 29.9 in SSE 4 mph 9.2 mph 50% 0 in
00:49 72.5 °F 52.9 °F 29.9 in SE 5.3 mph 10.7 mph 50.1% 0 in
00:54 72.1 °F 53.1 °F 29.9 in SSE 5.9 mph 11 mph 51% 0 in
00:59 71.6 °F 52.9 °F 29.9 in SSE 5.9 mph 9 mph 51.5% 0 in
01:04 71.2 °F 52.7 °F 29.9 in SSE 5.9 mph 10.2 mph 52% 0 in
01:09 71.1 °F 52.7 °F 29.9 in SSE 6.2 mph 10.4 mph 52.5% 0 in
01:14 70.9 °F 52.9 °F 29.9 in Sur 6.4 mph 10 mph 53% 0 in
01:19 70.7 °F 52.7 °F 29.9 in Sur 5.7 mph 7.4 mph 53% 0 in
01:24 70.9 °F 52.9 °F 29.9 in Sur 5.2 mph 7.4 mph 53% 0 in
01:29 70.9 °F 52.9 °F 29.9 in SSO 4.9 mph 7.4 mph 53% 0 in
01:34 70.9 °F 52.9 °F 29.9 in SSO 4.7 mph 8.5 mph 53% 0 in
01:39 71.1 °F 52.9 °F 29.9 in SSO 4.2 mph 9 mph 52.6% 0 in
01:44 71.1 °F 52.5 °F 29.9 in SO 4 mph 7 mph 52% 0 in
01:49 71.2 °F 52.7 °F 29.9 in SO 4 mph 7 mph 52% 0 in
01:54 71.2 °F 52.7 °F 29.9 in SO 4 mph 6 mph 52% 0 in
01:59 71.2 °F 52.5 °F 29.9 in OSO 3.4 mph 6 mph 52% 0 in
02:04 71.1 °F 52.5 °F 29.9 in OSO 3.1 mph 5 mph 52% 0 in
02:09 70.9 °F 52.5 °F 29.9 in SO 2.7 mph 5 mph 52.6% 0 in
02:14 70.5 °F 52.5 °F 29.9 in SSO 2.4 mph 5 mph 53% 0 in
02:19 70.3 °F 52.3 °F 29.9 in SSE 2.4 mph 4.6 mph 53% 0 in
02:24 70.3 °F 52.3 °F 29.9 in SE 2.4 mph 5 mph 53% 0 in
02:29 70.3 °F 52.3 °F 29.9 in Sur 2.4 mph 5.2 mph 53% 0 in
02:34 70.3 °F 52.3 °F 29.9 in Sur 2.4 mph 5 mph 53% 0 in
02:39 70.3 °F 52.3 °F 29.9 in Sur 2.7 mph 5.2 mph 52.7% 0 in
02:44 70.3 °F 52.2 °F 29.9 in SSE 2.9 mph 6.2 mph 52.5% 0 in
02:49 70.3 °F 52.2 °F 29.9 in SSE 3.3 mph 8.1 mph 52.7% 0 in
02:54 70.2 °F 52.2 °F 29.9 in Sur 3.6 mph 8 mph 53% 0 in
02:59 70 °F 52.2 °F 29.9 in SO 4.3 mph 7 mph 53% 0 in
03:04 70 °F 52.2 °F 29.9 in SSO 4.7 mph 8.1 mph 53% 0 in
03:09 70 °F 52.2 °F 29.9 in SSO 4.2 mph 8.1 mph 53% 0 in
03:14 70 °F 52.2 °F 29.9 in SSO 4 mph 8.1 mph 53% 0 in
03:19 70.2 °F 52.2 °F 29.9 in SO 4.5 mph 8 mph 53% 0 in
03:24 70.2 °F 52.2 °F 29.9 in SO 4.7 mph 7 mph 53% 0 in
03:29 70.2 °F 52.2 °F 29.9 in SSE 3.7 mph 5.9 mph 53% 0 in
03:34 69.8 °F 52.5 °F 29.9 in SE 3.1 mph 6.9 mph 54% 0 in
03:39 69.1 °F 52.3 °F 29.9 in SSE 3.7 mph 7 mph 55.2% 0 in
03:44 68.7 °F 52.3 °F 29.9 in Sur 4 mph 8.1 mph 55.7% 0 in
03:49 68.9 °F 52.2 °F 29.9 in SSO 4.2 mph 8.1 mph 55% 0 in
03:54 69.1 °F 52.2 °F 29.9 in SSO 4.3 mph 9.2 mph 55% 0 in
03:59 69.1 °F 52.2 °F 29.9 in SSO 4.9 mph 9 mph 55% 0 in
04:04 69.1 °F 51.8 °F 29.9 in Sur 5.2 mph 9.2 mph 54.1% 0 in
04:09 69.3 °F 51.8 °F 29.9 in Sur 5.3 mph 9.7 mph 54% 0 in
04:14 69.3 °F 52 °F 29.9 in SSE 5.4 mph 10 mph 54% 0 in
04:19 69.3 °F 51.8 °F 29.9 in SSE 5.4 mph 9.2 mph 54% 0 in
04:24 68.9 °F 51.6 °F 29.9 in SSE 5.4 mph 9.7 mph 54.1% 0 in
04:29 68.5 °F 51.8 °F 29.9 in Sur 5.7 mph 10 mph 55% 0 in
04:34 68.5 °F 51.6 °F 29.9 in Sur 5.9 mph 10 mph 54.7% 0 in
04:39 68.5 °F 51.3 °F 29.9 in Sur 6.1 mph 10 mph 54% 0 in
04:44 68.7 °F 50.7 °F 29.9 in Sur 6.2 mph 9.7 mph 52.8% 0 in
04:49 69.3 °F 50.2 °F 29.9 in Sur 6.2 mph 10 mph 50.7% 0 in
04:54 69.8 °F 49.5 °F 29.9 in Sur 6.2 mph 9 mph 48.5% 0 in
04:59 70.2 °F 48.9 °F 29.9 in SSE 5.5 mph 8.1 mph 47% 0 in
05:04 70.2 °F 48.9 °F 29.9 in SSE 5.2 mph 8.5 mph 47% 0 in
05:09 70.2 °F 49.3 °F 29.9 in SE 5.3 mph 9 mph 47.8% 0 in
05:14 69.8 °F 49.3 °F 29.9 in SSO 5.4 mph 8 mph 48.3% 0 in
05:19 69.6 °F 48.6 °F 29.9 in Sur 4.5 mph 9.2 mph 47% 0 in
05:24 70 °F 48 °F 29.9 in SSE 4 mph 10.2 mph 45.6% 0 in
05:29 70.3 °F 47.8 °F 29.9 in SSE 5.5 mph 10.4 mph 44.8% 0 in
05:34 70.3 °F 47.1 °F 29.9 in Sur 6.4 mph 10 mph 43.6% 0 in
05:39 70.5 °F 46.9 °F 29.9 in Sur 6.3 mph 9 mph 43% 0 in
05:44 70.5 °F 46.4 °F 29.9 in Sur 6.2 mph 8 mph 42.1% 0 in
05:49 70.7 °F 46.2 °F 29.9 in SSO 5.5 mph 8.1 mph 41.5% 0 in
05:54 71.1 °F 46 °F 29.9 in SSO 5.2 mph 8.1 mph 40.8% 0 in
05:59 71.2 °F 45.5 °F 29.9 in Sur 5.2 mph 8.7 mph 39.6% 0 in
06:04 71.8 °F 45 °F 29.9 in Sur 5.2 mph 9.2 mph 38.4% 0 in
06:09 72 °F 45 °F 29.9 in Sur 5.8 mph 9 mph 38% 0 in
06:14 72 °F 45 °F 29.9 in Sur 6.2 mph 8.1 mph 38% 0 in
06:19 72 °F 45 °F 29.9 in Sur 5.7 mph 9.2 mph 38% 0 in
06:24 71.8 °F 45.3 °F 29.9 in Sur 5.4 mph 9 mph 38.7% 0 in
06:29 71.6 °F 45.1 °F 29.9 in SSO 5.7 mph 9 mph 38.8% 0 in
06:34 71.4 °F 45.1 °F 29.9 in Sur 5.9 mph 8.1 mph 38.9% 0 in
06:39 71.2 °F 45.1 °F 29.9 in SSO 4.3 mph 8 mph 39% 0 in
06:44 71.2 °F 45 °F 29.9 in SSO 3.6 mph 7.6 mph 39% 0 in
06:49 71.1 °F 44.8 °F 29.9 in SSO 4.3 mph 8.1 mph 39% 0 in
06:54 70.9 °F 44.8 °F 29.9 in Sur 4.7 mph 8.1 mph 39.1% 0 in
06:59 70.9 °F 45 °F 29.9 in Sur 4.7 mph 8.1 mph 39.4% 0 in
07:04 70.7 °F 45.1 °F 29.9 in Sur 4.7 mph 8 mph 40% 0 in
07:09 70.5 °F 45.3 °F 29.9 in Sur 5 mph 7 mph 40.4% 0 in
07:14 70.5 °F 45.7 °F 29.9 in Sur 5.2 mph 7 mph 41% 0 in
07:19 70.3 °F 45.5 °F 29.9 in Sur 4.4 mph 5.9 mph 41.1% 0 in
07:24 70.3 °F 46 °F 29.9 in SSE 4 mph 6 mph 42% 0 in
07:29 70.2 °F 46 °F 29.9 in SSE 3.5 mph 5.2 mph 42% 0 in
07:34 70 °F 46 °F 29.9 in SE 3.1 mph 5.2 mph 42.2% 0 in
07:39 70 °F 46.4 °F 29.9 in SSE 3.1 mph 5.2 mph 43% 0 in
07:44 70.2 °F 46.6 °F 29.9 in SE 3.1 mph 5 mph 43% 0 in
07:49 70.2 °F 46.6 °F 29.9 in SSE 3 mph 5 mph 43% 0 in
07:54 70.2 °F 46.6 °F 29.9 in SSE 2.9 mph 6.4 mph 43% 0 in
07:59 70.3 °F 46.6 °F 29.9 in Sur 3.6 mph 6.9 mph 42.8% 0 in
08:04 70.3 °F 46.2 °F 29.9 in SSE 4 mph 7 mph 42% 0 in
08:09 70.5 °F 46.4 °F 29.9 in Sur 4 mph 6 mph 42.1% 0 in
08:14 70.7 °F 46.9 °F 29.9 in SSO 4 mph 6 mph 42.5% 0 in
08:19 71.1 °F 47.3 °F 29.9 in Sur 3.4 mph 5 mph 43% 0 in
08:24 71.2 °F 47.3 °F 29.9 in Sur 2.9 mph 6.2 mph 42.5% 0 in
08:29 71.8 °F 47.3 °F 29.9 in SSO 2.9 mph 6 mph 42% 0 in
08:34 72 °F 47.7 °F 29.9 in SO 2.9 mph 6 mph 42% 0 in
08:39 72.5 °F 48 °F 29.9 in OSO 2.6 mph 5 mph 42% 0 in
08:44 72.9 °F 48.7 °F 29.9 in Oeste 2.4 mph 5 mph 42.3% 0 in
08:49 73.2 °F 48.7 °F 29.9 in Oeste 2.1 mph 3.5 mph 42% 0 in
08:54 73.8 °F 49.3 °F 29.9 in OSO 1.8 mph 3.6 mph 42% 0 in
08:59 74.1 °F 49.3 °F 29.9 in OSO 1.6 mph 4 mph 41.3% 0 in
09:04 74.7 °F 49.3 °F 29.9 in SO 1.4 mph 4.6 mph 41% 0 in
09:09 74.8 °F 49.6 °F 29.9 in SO 1.8 mph 5 mph 41% 0 in
09:14 75 °F 49.8 °F 29.9 in SO 2 mph 7.6 mph 41% 0 in
09:19 75.2 °F 50 °F 29.9 in SO 3.4 mph 8.1 mph 41% 0 in
09:24 75.4 °F 50.2 °F 29.9 in SO 4 mph 9 mph 41.3% 0 in
09:29 75.7 °F 50.5 °F 29.9 in SO 4.5 mph 8.1 mph 41.2% 0 in
09:34 76.1 °F 50.5 °F 29.9 in SSO 4.7 mph 8 mph 41% 0 in
09:39 76.5 °F 50.9 °F 29.9 in SSO 4.7 mph 8.7 mph 40.9% 0 in
09:44 76.8 °F 50.9 °F 29.9 in SSO 4.7 mph 9.2 mph 40.5% 0 in
09:49 77.4 °F 51.3 °F 29.9 in SSO 5 mph 9 mph 40.1% 0 in
09:54 77.7 °F 51.4 °F 29.9 in SO 5.2 mph 8.1 mph 40% 0 in
09:59 78.1 °F 51.3 °F 29.9 in SSO 4.8 mph 11.8 mph 39.3% 0 in
10:04 78.3 °F 51.3 °F 29.9 in SSO 4.7 mph 12 mph 39% 0 in
10:09 78.6 °F 51.6 °F 29.9 in SO 5.2 mph 10.2 mph 39% 0 in
10:14 79 °F 51.8 °F 29.9 in OSO 5.4 mph 10.4 mph 39% 0 in
10:19 79.2 °F 52 °F 29.9 in SO 5.7 mph 10 mph 38.8% 0 in
10:24 79.5 °F 51.8 °F 29.9 in OSO 5.9 mph 9.2 mph 38% 0 in
10:29 80.1 °F 52.2 °F 29.9 in SO 4.9 mph 9 mph 38% 0 in
10:34 80.2 °F 52.3 °F 29.9 in OSO 4.3 mph 12.7 mph 38% 0 in
10:39 80.2 °F 52.3 °F 29.9 in SSO 4.8 mph 13 mph 37.9% 0 in
10:44 80.8 °F 52.2 °F 29.9 in SSO 5.2 mph 8.1 mph 37.2% 0 in
10:49 81.1 °F 52 °F 29.9 in OSO 4.7 mph 9.2 mph 36.4% 0 in
10:54 81.3 °F 51.8 °F 29.9 in OSO 4.3 mph 9 mph 36% 0 in
10:59 81.9 °F 52.2 °F 29.9 in SO 4.5 mph 8.1 mph 35.8% 0 in
11:04 82.2 °F 51.8 °F 29.9 in SSO 4.7 mph 7.4 mph 35% 0 in
11:09 82.2 °F 51.8 °F 29.9 in SO 5 mph 9.2 mph 35% 0 in
11:14 82.4 °F 52.2 °F 29.9 in Sur 5.2 mph 9.2 mph 35% 0 in
11:19 82.8 °F 52.2 °F 29.9 in OSO 4.6 mph 9.7 mph 34.7% 0 in
11:24 83.1 °F 51.8 °F 29.9 in Oeste 4.3 mph 12.7 mph 34.1% 0 in
11:29 83.3 °F 52 °F 29.9 in SO 5 mph 13 mph 34% 0 in
11:34 83.1 °F 51.8 °F 29.9 in SO 5.4 mph 13 mph 34% 0 in
11:39 83.3 °F 52 °F 29.9 in SSO 4.9 mph 10 mph 34% 0 in
11:44 83.7 °F 51.4 °F 29.9 in ONO 4.7 mph 6.9 mph 32.8% 0 in
11:49 84.4 °F 52 °F 29.9 in ONO 4.7 mph 8.5 mph 32.8% 0 in
11:54 84.7 °F 51.8 °F 29.9 in SO 4.7 mph 9.2 mph 32.3% 0 in
11:59 85.1 °F 52 °F 29.9 in OSO 5 mph 9 mph 32% 0 in
12:04 85.3 °F 52.2 °F 29.9 in ONO 5.2 mph 9.2 mph 32% 0 in
12:09 85.6 °F 52 °F 29.9 in Oeste 4.6 mph 9 mph 31.7% 0 in
12:14 85.8 °F 51.4 °F 29.9 in SSO 4.3 mph 9.2 mph 30.7% 0 in
12:19 86 °F 50.5 °F 29.9 in SSO 4.3 mph 9.2 mph 29.5% 0 in
12:24 86.2 °F 50.2 °F 29.9 in SO 4.3 mph 9.2 mph 29% 0 in
12:29 86.5 °F 50.4 °F 29.9 in SSO 4.9 mph 9.2 mph 29% 0 in
12:34 86.5 °F 50.5 °F 29.9 in SSO 5.2 mph 9 mph 29% 0 in
12:39 86.7 °F 50.4 °F 29.9 in SSE 4.4 mph 9.2 mph 28.8% 0 in
12:44 86.9 °F 50.5 °F 29.9 in SSE 4 mph 9.2 mph 28.7% 0 in
12:49 87.3 °F 50.2 °F 29.9 in SSO 4 mph 10.2 mph 28% 0 in
12:54 87.6 °F 50.2 °F 29.9 in SSO 4 mph 10.4 mph 27.6% 0 in
12:58 88 °F 49.8 °F 29.9 in SSE 4.4 mph 10 mph 27% 0 in
14:24 91.9 °F 48.9 °F 29.8 in NE 2.9 mph 8.1 mph 23.1% 0 in
14:29 92.3 °F 48.9 °F 29.8 in ESE 2.9 mph 8 mph 22.9% 0 in
14:34 92.7 °F 46.6 °F 29.8 in SSO 2.9 mph 11.2 mph 20.7% 0 in
14:39 92.5 °F 45.5 °F 29.8 in OSO 4 mph 12 mph 20% 0 in
14:44 92.1 °F 45.9 °F 29.8 in Oeste 5.2 mph 10 mph 20.4% 0 in
14:49 91.9 °F 45.9 °F 29.8 in SSE 4.6 mph 7 mph 20.6% 0 in
14:54 91.9 °F 46.4 °F 29.8 in Este 4 mph 8.1 mph 21% 0 in
14:59 91.8 °F 46.4 °F 29.8 in Sur 4.3 mph 10.4 mph 21% 0 in
15:04 92.1 °F 46.4 °F 29.8 in SE 4.7 mph 10 mph 20.9% 0 in
15:09 92.5 °F 46.2 °F 29.8 in ESE 5 mph 9 mph 20.5% 0 in
15:14 92.8 °F 46.4 °F 29.8 in Sur 5.2 mph 13.8 mph 20.4% 0 in
15:19 92.8 °F 46.4 °F 29.8 in Sur 6 mph 14 mph 20.4% 0 in
15:24 92.8 °F 46.8 °F 29.8 in Sur 6.9 mph 14 mph 20.6% 0 in
15:29 93.4 °F 46.8 °F 29.8 in Sur 6.9 mph 14 mph 20.4% 0 in
15:34 93.7 °F 47.1 °F 29.8 in Sur 6.9 mph 12 mph 20.4% 0 in
15:39 93.7 °F 47.1 °F 29.8 in SE 5.8 mph 11.5 mph 20.4% 0 in
15:44 93.7 °F 48 °F 29.8 in ESE 4.3 mph 17.3 mph 21% 0 in
15:49 93.6 °F 47.8 °F 29.8 in ESE 6.7 mph 19 mph 21% 0 in
15:54 93.4 °F 47.7 °F 29.8 in ESE 9.2 mph 22.3 mph 21% 0 in
15:59 93.6 °F 47.5 °F 29.8 in ESE 10.3 mph 22 mph 20.8% 0 in
16:04 93.6 °F 46.8 °F 29.8 in ESE 11.2 mph 17 mph 20.3% 0 in
16:09 93.4 °F 46.6 °F 29.8 in SE 10.2 mph 17.3 mph 20.2% 0 in
16:14 93.4 °F 46.4 °F 29.8 in SE 9.2 mph 17 mph 20% 0 in
16:19 93.4 °F 46.4 °F 29.8 in SSE 9.6 mph 17.8 mph 20% 0 in
16:24 93.2 °F 46.2 °F 29.8 in SE 10 mph 19.6 mph 20% 0 in
16:29 93 °F 46 °F 29.8 in SE 10.6 mph 20 mph 20% 0 in
16:34 93.6 °F 46.4 °F 29.8 in ESE 11.4 mph 20 mph 20% 0 in
16:39 93.7 °F 46.6 °F 29.8 in SE 10.6 mph 17.3 mph 20% 0 in
16:44 93.6 °F 46.4 °F 29.8 in SE 9.7 mph 17.3 mph 20% 0 in
16:49 93.6 °F 46.4 °F 29.8 in SSE 10.1 mph 21.9 mph 20% 0 in
16:54 93.2 °F 46.2 °F 29.8 in SSE 10.7 mph 22 mph 20% 0 in
16:59 93.4 °F 46.4 °F 29.8 in SSE 11.5 mph 19 mph 20.1% 0 in
17:04 93.2 °F 46.2 °F 29.8 in SE 12.3 mph 19.6 mph 20% 0 in
17:09 93.6 °F 46.8 °F 29.8 in SSE 11.2 mph 20 mph 20.3% 0 in
17:14 93.4 °F 47.1 °F 29.8 in SSE 10 mph 21.5 mph 20.6% 0 in
17:19 93.4 °F 47.5 °F 29.8 in SE 10.3 mph 22 mph 20.9% 0 in
17:24 92.8 °F 46.9 °F 29.8 in SE 10.7 mph 20.7 mph 20.8% 0 in
17:29 92.5 °F 46.9 °F 29.8 in SSE 11.2 mph 21 mph 21% 0 in
17:34 92.7 °F 46.9 °F 29.8 in SSE 11.8 mph 21 mph 21% 0 in
17:39 92.8 °F 47.3 °F 29.8 in SE 11.5 mph 21 mph 21% 0 in
17:44 92.8 °F 47.1 °F 29.8 in SE 11.2 mph 18.4 mph 21% 0 in
17:49 92.7 °F 46.9 °F 29.8 in SE 11.5 mph 19 mph 21% 0 in
17:54 92.3 °F 46.8 °F 29.8 in SE 11.8 mph 19 mph 21% 0 in
17:59 91.9 °F 46.4 °F 29.8 in SE 11.5 mph 18.4 mph 21% 0 in
18:04 91.8 °F 46.6 °F 29.8 in SE 11.2 mph 18 mph 21.3% 0 in
18:09 91.8 °F 46.9 °F 29.8 in ESE 10.9 mph 19.7 mph 21.5% 0 in
18:14 91 °F 46.4 °F 29.8 in ESE 10.7 mph 20 mph 21.6% 0 in
18:19 91 °F 46.9 °F 29.8 in ESE 11.6 mph 19.7 mph 22% 0 in
18:24 90.9 °F 46.8 °F 29.8 in SE 12.5 mph 22.3 mph 22% 0 in
18:29 90.7 °F 46.6 °F 29.8 in SE 12.4 mph 22 mph 22% 0 in
18:34 90.9 °F 46.8 °F 29.8 in SE 12.3 mph 18.5 mph 22% 0 in
18:39 91 °F 46.9 °F 29.8 in SE 11.2 mph 19 mph 22% 0 in
18:44 90.7 °F 47.3 °F 29.8 in SE 10 mph 18 mph 22.6% 0 in
18:49 90.1 °F 47.3 °F 29.8 in SE 10.3 mph 18.4 mph 23% 0 in
18:54 89.6 °F 46.9 °F 29.8 in SE 10.7 mph 18.4 mph 23% 0 in
18:59 89.2 °F 47.7 °F 29.8 in SE 10.7 mph 17.3 mph 23.9% 0 in
19:04 89.2 °F 47.7 °F 29.8 in SE 10.7 mph 17 mph 24% 0 in
19:09 89.1 °F 47.7 °F 29.8 in SE 9.6 mph 16.1 mph 24% 0 in
19:14 88.9 °F 47.5 °F 29.8 in SE 8.7 mph 12 mph 24% 0 in
19:19 88.7 °F 47.3 °F 29.8 in SSE 7.5 mph 12 mph 24% 0 in
19:24 88.5 °F 47.5 °F 29.8 in SSE 6.4 mph 11.4 mph 24.2% 0 in
19:29 88.5 °F 47.1 °F 29.8 in SSE 6 mph 12 mph 24% 0 in
19:34 88.3 °F 47.5 °F 29.8 in SSE 5.4 mph 12 mph 24.5% 0 in
19:39 88.2 °F 47.7 °F 29.8 in Sur 5.7 mph 10.4 mph 24.8% 0 in
19:44 88 °F 47.7 °F 29.8 in Sur 5.9 mph 10 mph 25% 0 in
19:49 88 °F 47.7 °F 29.8 in SSE 6.3 mph 10 mph 25% 0 in
19:54 88 °F 47.7 °F 29.8 in SSE 6.9 mph 9 mph 25% 0 in
19:59 87.8 °F 47.7 °F 29.8 in SSE 6 mph 8 mph 25% 0 in
20:04 88.2 °F 47.3 °F 29.8 in SSE 5.4 mph 7 mph 24.6% 0 in
20:09 88.2 °F 46.8 °F 29.8 in SSE 5 mph 7.4 mph 24% 0 in
20:14 88.3 °F 47.1 °F 29.8 in SSE 4.7 mph 7 mph 24.1% 0 in
20:19 88.7 °F 47.5 °F 29.8 in SSE 4.1 mph 6.2 mph 24.2% 0 in
20:24 88.9 °F 46.8 °F 29.8 in Sur 3.6 mph 9.2 mph 23.4% 0 in
20:29 88.7 °F 46 °F 29.8 in SSO 4.1 mph 9 mph 23% 0 in
20:34 88.7 °F 46 °F 29.8 in SSO 4.7 mph 7.4 mph 23% 0 in
20:39 88.5 °F 46 °F 29.8 in SO 4.7 mph 8.5 mph 23% 0 in
20:44 88.3 °F 46.4 °F 29.8 in OSO 4.7 mph 9.7 mph 23.5% 0 in
20:49 88 °F 47.8 °F 29.8 in SSO 4.9 mph 10 mph 25% 0 in
20:54 87.4 °F 47.3 °F 29.8 in SO 5.2 mph 9.7 mph 25% 0 in
20:59 86.9 °F 46.8 °F 29.8 in SO 5.2 mph 10 mph 25% 0 in
21:04 86.5 °F 46.4 °F 29.8 in SSO 5.2 mph 9.7 mph 25% 0 in
21:09 86.2 °F 46.2 °F 29.8 in SSO 5 mph 10 mph 25% 0 in
21:14 85.6 °F 45.9 °F 29.8 in SO 4.7 mph 10.2 mph 25% 0 in
21:19 85.5 °F 45.5 °F 29.8 in SO 5 mph 12.3 mph 25.1% 0 in
21:24 84.7 °F 46 °F 29.8 in SSO 5.4 mph 13 mph 25.9% 0 in
21:29 84.6 °F 45.9 °F 29.8 in SSO 6.2 mph 13 mph 26% 0 in
21:34 84 °F 45.5 °F 29.8 in Sur 6.9 mph 21.9 mph 26% 0 in
21:39 83.8 °F 46 °F 29.8 in SSO 8 mph 22 mph 26.9% 0 in
21:44 83.5 °F 46 °F 29.8 in SSO 9.2 mph 19 mph 27% 0 in
21:49 83.3 °F 45.9 °F 29.8 in Sur 8.9 mph 19 mph 27% 0 in
21:54 83.3 °F 45.9 °F 29.8 in OSO 8.7 mph 14 mph 27% 0 in
21:59 83.3 °F 45.9 °F 29.8 in SSO 6.5 mph 11.5 mph 27% 0 in
22:04 83.3 °F 46 °F 29.8 in SSO 4.7 mph 12 mph 27.3% 0 in
22:09 83.1 °F 46.6 °F 29.8 in SO 4.3 mph 9 mph 28% 0 in
22:14 83.1 °F 46.6 °F 29.8 in SO 4 mph 5.2 mph 28% 0 in
22:19 82.9 °F 46.6 °F 29.8 in SO 3.5 mph 5.8 mph 28% 0 in
22:24 82.8 °F 46.4 °F 29.8 in SSO 2.9 mph 8.1 mph 28% 0 in
22:29 82.6 °F 46.8 °F 29.8 in Sur 3.7 mph 10.7 mph 28.6% 0 in
22:34 82.2 °F 46.8 °F 29.8 in Sur 4.7 mph 15 mph 29.1% 0 in
22:39 81.7 °F 47.3 °F 29.8 in Sur 5.7 mph 15 mph 30% 0 in
22:44 81.1 °F 47.3 °F 29.8 in SSO 6.9 mph 15 mph 30.5% 0 in
22:49 81 °F 47.5 °F 29.8 in Sur 6.6 mph 10 mph 31% 0 in
22:54 80.8 °F 47.3 °F 29.8 in Sur 6.4 mph 10 mph 31% 0 in
22:59 80.8 °F 47.8 °F 29.8 in Sur 5.9 mph 10.4 mph 31.7% 0 in
23:04 80.4 °F 47.8 °F 29.8 in SSO 5.4 mph 10 mph 32% 0 in
23:09 80.4 °F 47.8 °F 29.8 in SSO 4.9 mph 11.2 mph 32% 0 in
23:14 80.2 °F 47.8 °F 29.8 in SSO 4.3 mph 12 mph 32.1% 0 in
23:19 80.2 °F 48.4 °F 29.8 in SO 4.7 mph 12 mph 32.8% 0 in
23:24 80.1 °F 48.4 °F 29.8 in SSO 5.2 mph 9.2 mph 33% 0 in
23:29 79.7 °F 48 °F 29.8 in Sur 4.8 mph 9 mph 33% 0 in
23:34 79.3 °F 48.4 °F 29.8 in Sur 4.3 mph 9.7 mph 33.8% 0 in
23:39 79.2 °F 48.4 °F 29.8 in SSE 5 mph 10 mph 34% 0 in
23:44 79 °F 48.4 °F 29.9 in Sur 5.9 mph 9 mph 34.2% 0 in
23:49 78.8 °F 48.9 °F 29.9 in Sur 5.5 mph 9.2 mph 35% 0 in
23:54 78.6 °F 48.7 °F 29.9 in SSO 5.2 mph 9.2 mph 35% 0 in
23:59 78.6 °F 48.7 °F 29.9 in SSO 4.9 mph 9 mph 35% 0 in
Murcia-Puente Tocinos, España
Compliments of Weather Underground - 2.75 mb

La estación de MeteoMurcia.com, publica sus datos en los siguientes proyectos:

Weather Underground PWS IMURCIAP2 Meteoclimatic www.awekas.at

W3Counter
Web Analytics